Time;durP1;ratioP1;P1;durP2;ratioP2;P2;SDS_P1;SDS_P2;PMS_P1;PMS_P2;Temp;Humidity;BMP_temperature;BMP_pressure;BME280_temperature;BME280_humidity;BME280_pressure;Samples;Min_cycle;Max_cycle;Signal;HPM_P1;HPM_P2
2021/04/20 00:00:14;;;;;;;9.38;6.47;;;7.30;99.90;;;;;;5034788;28;20045;-75
2021/04/20 00:02:40;;;;;;;10.77;5.80;;;7.50;99.90;;;;;;5032952;28;20075;-76
2021/04/20 00:05:09;;;;;;;10.07;6.65;;;7.60;99.90;;;;;;5034238;28;20395;-76
2021/04/20 00:07:34;;;;;;;11.52;6.05;;;7.60;99.90;;;;;;5034431;28;20022;-75
2021/04/20 00:10:00;;;;;;;4.65;3.92;;;7.70;99.90;;;;;;5033909;28;20022;-76
2021/04/20 00:12:26;;;;;;;4.80;3.80;;;7.60;99.90;;;;;;5034469;28;20033;-76
2021/04/20 00:14:52;;;;;;;7.63;3.63;;;7.60;99.90;;;;;;5034332;28;20033;-76
2021/04/20 00:17:18;;;;;;;4.07;3.10;;;7.70;99.90;;;;;;5034264;28;20479;-76
2021/04/20 00:19:43;;;;;;;4.47;3.15;;;7.40;99.90;;;;;;5049413;28;20031;-76
2021/04/20 00:22:09;;;;;;;5.30;2.90;;;7.00;99.90;;;;;;5035555;28;20034;-75
2021/04/20 00:24:35;;;;;;;5.47;3.80;;;7.10;99.90;;;;;;5033917;28;20025;-76
2021/04/20 00:27:01;;;;;;;4.18;3.30;;;7.20;99.90;;;;;;5032770;28;20113;-76
2021/04/20 00:29:27;;;;;;;6.32;4.13;;;7.30;99.90;;;;;;5045384;28;20131;-76
2021/04/20 00:31:53;;;;;;;5.28;3.63;;;7.20;99.90;;;;;;5053786;28;20018;-76
2021/04/20 00:34:18;;;;;;;5.25;3.40;;;7.30;99.90;;;;;;5053292;28;20031;-75
2021/04/20 00:36:44;;;;;;;4.53;3.92;;;7.10;99.90;;;;;;5047632;28;20113;-76
2021/04/20 00:39:10;;;;;;;5.13;3.38;;;7.10;99.90;;;;;;5033385;28;20040;-76
2021/04/20 00:41:36;;;;;;;4.75;3.22;;;7.20;99.90;;;;;;5034006;28;20549;-76
2021/04/20 00:44:01;;;;;;;3.67;3.20;;;7.30;99.90;;;;;;5032625;28;20037;-75
2021/04/20 00:46:28;;;;;;;4.07;2.80;;;7.30;99.90;;;;;;5033743;28;20029;-76
2021/04/20 00:48:53;;;;;;;4.05;2.80;;;7.00;99.90;;;;;;5034023;28;20026;-76
2021/04/20 00:51:20;;;;;;;5.25;3.10;;;6.90;99.90;;;;;;5032195;28;20056;-76
2021/04/20 00:53:46;;;;;;;6.25;3.80;;;6.80;99.90;;;;;;5033741;28;20056;-76
2021/04/20 00:56:17;;;;;;;5.43;2.97;;;6.80;99.90;;;;;;5032026;28;20552;-75
2021/04/20 00:58:43;;;;;;;10.07;6.75;;;7.00;99.90;;;;;;5033600;28;20075;-75
2021/04/20 01:01:10;;;;;;;5.93;3.65;;;7.10;99.90;;;;;;5033158;28;20120;-75
2021/04/20 01:03:35;;;;;;;4.10;3.63;;;7.10;99.90;;;;;;5033731;28;20025;-76
2021/04/20 01:06:02;;;;;;;7.10;3.90;;;7.00;99.90;;;;;;5037235;28;20029;-76
2021/04/20 01:08:28;;;;;;;4.80;3.53;;;7.00;99.90;;;;;;5041722;28;20075;-76
2021/04/20 01:10:58;;;;;;;6.93;3.88;;;6.90;99.90;;;;;;5041666;28;20018;-75
2021/04/20 01:13:28;;;;;;;3.10;2.80;;;6.70;99.90;;;;;;5043062;28;20021;-76
2021/04/20 01:15:54;;;;;;;4.20;3.38;;;6.80;99.90;;;;;;5043553;28;20036;-76
2021/04/20 01:18:24;;;;;;;4.63;3.42;;;6.50;99.90;;;;;;5042839;28;20379;-76
2021/04/20 01:20:51;;;;;;;;;;;6.60;99.90;;;;;;5038865;28;20025;-76
2021/04/20 01:24:02;;;;;;;3.92;3.25;;;6.70;99.90;;;;;;5043680;28;19904;-75
2021/04/20 01:26:30;;;;;;;2.83;2.35;;;6.70;99.90;;;;;;5040539;28;20037;-75
2021/04/20 01:28:58;;;;;;;4.20;3.72;;;6.60;99.90;;;;;;5042318;28;20079;-76
2021/04/20 01:31:26;;;;;;;4.05;3.60;;;6.70;99.90;;;;;;5040565;28;20541;-76
2021/04/20 01:33:52;;;;;;;3.75;3.05;;;6.50;99.90;;;;;;5038762;28;20020;-75
2021/04/20 01:36:20;;;;;;;5.00;4.22;;;6.50;99.90;;;;;;5021994;28;20033;-76
2021/04/20 01:38:48;;;;;;;10.27;7.03;;;6.50;99.90;;;;;;5032802;28;20091;-76
2021/04/20 01:41:15;;;;;;;7.45;4.03;;;6.50;99.90;;;;;;5013096;28;20022;-76
2021/04/20 01:43:42;;;;;;;7.15;4.43;;;6.40;99.90;;;;;;5014156;28;20136;-76
2021/04/20 01:46:08;;;;;;;7.43;4.38;;;6.40;99.90;;;;;;5030790;28;20029;-76
2021/04/20 01:48:35;;;;;;;5.93;4.13;;;6.50;99.90;;;;;;5023147;28;20035;-76
2021/04/20 01:51:01;;;;;;;5.25;4.75;;;6.50;99.90;;;;;;5041816;28;20036;-75
2021/04/20 01:53:28;;;;;;;5.85;4.10;;;6.60;99.90;;;;;;5046799;28;20033;-75
2021/04/20 01:56:00;;;;;;;5.28;4.78;;;6.50;99.90;;;;;;5034983;28;20040;-75
2021/04/20 01:58:28;;;;;;;5.22;4.53;;;6.60;99.90;;;;;;5036925;28;20068;-76
2021/04/20 02:00:55;;;;;;;9.95;7.13;;;6.70;99.90;;;;;;5030121;28;20087;-75
2021/04/20 02:03:25;;;;;;;11.02;7.80;;;6.70;99.90;;;;;;5035058;28;20041;-76
2021/04/20 02:05:51;;;;;;;8.35;6.20;;;6.50;99.90;;;;;;5030586;28;20044;-75
2021/04/20 02:08:18;;;;;;;10.18;5.90;;;6.50;99.90;;;;;;5031154;28;20033;-76
2021/04/20 02:10:44;;;;;;;6.35;4.45;;;6.40;99.90;;;;;;5031120;28;20022;-76
2021/04/20 02:13:11;;;;;;;8.25;5.28;;;6.30;99.90;;;;;;5031130;28;20044;-75
2021/04/20 02:15:37;;;;;;;6.72;4.80;;;6.50;99.90;;;;;;5032971;28;20405;-75
2021/04/20 02:18:05;;;;;;;16.17;4.95;;;6.70;99.90;;;;;;5031221;28;20091;-76
2021/04/20 02:20:32;;;;;;;12.85;7.53;;;6.70;99.90;;;;;;5022761;28;20021;-75
2021/04/20 02:22:59;;;;;;;7.47;5.13;;;6.70;99.90;;;;;;5030884;28;20029;-76
2021/04/20 02:25:27;;;;;;;6.47;5.00;;;6.70;99.90;;;;;;5039806;28;20091;-75
2021/04/20 02:27:53;;;;;;;10.57;4.53;;;6.60;99.90;;;;;;5048181;28;20033;-76
2021/04/20 02:30:19;;;;;;;5.63;4.20;;;6.70;99.90;;;;;;5031044;28;20059;-76
2021/04/20 02:32:45;;;;;;;5.25;4.30;;;6.70;99.90;;;;;;5031675;28;20027;-75
2021/04/20 02:35:13;;;;;;;5.63;4.22;;;6.50;99.90;;;;;;5032347;28;20426;-76
2021/04/20 02:37:40;;;;;;;4.65;3.75;;;6.50;99.90;;;;;;5030599;28;20034;-75
2021/04/20 02:40:11;;;;;;;4.60;3.63;;;6.40;99.90;;;;;;5033534;28;20561;-75
2021/04/20 02:42:38;;;;;;;5.50;4.30;;;6.40;99.90;;;;;;5029691;28;20404;-76
2021/04/20 02:45:06;;;;;;;5.82;4.25;;;6.30;99.90;;;;;;5033837;28;20488;-76
2021/04/20 02:47:34;;;;;;;4.85;3.83;;;6.30;99.90;;;;;;5026969;28;20509;-76
2021/04/20 02:50:02;;;;;;;3.15;2.80;;;6.20;99.90;;;;;;5030448;28;20475;-76
2021/04/20 02:52:29;;;;;;;5.60;3.90;;;6.10;99.90;;;;;;5030227;28;20487;-76
2021/04/20 02:54:55;;;;;;;8.82;5.55;;;6.10;99.90;;;;;;5029019;28;20063;-76
2021/04/20 02:57:22;;;;;;;6.90;4.97;;;6.00;99.90;;;;;;5026535;28;20096;-76
2021/04/20 02:59:48;;;;;;;10.48;5.75;;;6.10;99.90;;;;;;5030137;28;20044;-76
2021/04/20 03:02:16;;;;;;;6.97;4.80;;;6.10;99.90;;;;;;5030051;28;20025;-76
2021/04/20 03:04:42;;;;;;;4.65;3.97;;;6.20;99.90;;;;;;5030518;28;20010;-76
2021/04/20 03:07:08;;;;;;;3.35;3.03;;;6.30;99.90;;;;;;5029936;28;20036;-76
2021/04/20 03:09:35;;;;;;;4.45;3.17;;;6.10;99.90;;;;;;5042300;28;20494;-75
2021/04/20 03:12:01;;;;;;;4.18;3.17;;;5.90;99.90;;;;;;5051275;28;20487;-75
2021/04/20 03:14:28;;;;;;;4.80;3.80;;;5.40;99.90;;;;;;5051627;28;20409;-76
2021/04/20 03:16:54;;;;;;;5.57;3.95;;;5.30;99.90;;;;;;5049488;28;20037;-76
2021/04/20 03:19:20;;;;;;;4.85;3.70;;;5.40;99.90;;;;;;5042720;28;20030;-76
2021/04/20 03:21:48;;;;;;;4.40;3.55;;;5.70;99.90;;;;;;5031429;28;20033;-76
2021/04/20 03:24:57;;;;;;;5.22;3.50;;;5.80;99.90;;;;;;5031500;28;20029;-75
2021/04/20 03:27:23;;;;;;;4.68;3.03;;;5.90;99.90;;;;;;5031678;28;20510;-75
2021/04/20 03:29:48;;;;;;;3.40;3.10;;;5.60;99.90;;;;;;5030224;28;20034;-75
2021/04/20 03:32:14;;;;;;;5.13;3.45;;;5.30;99.90;;;;;;5031034;28;20032;-75
2021/04/20 03:34:48;;;;;;;6.30;4.10;;;5.20;99.90;;;;;;5031505;28;20088;-75
2021/04/20 03:37:19;;;;;;;5.40;3.55;;;5.20;99.90;;;;;;5031465;28;20084;-75
2021/04/20 03:39:47;;;;;;;4.75;4.00;;;5.40;99.90;;;;;;5033970;28;20028;-76
2021/04/20 03:42:18;;;;;;;4.80;3.72;;;5.50;99.90;;;;;;5051333;28;20078;-75
2021/04/20 03:44:43;;;;;;;3.70;3.38;;;5.50;99.90;;;;;;5051163;28;20087;-75
2021/04/20 03:47:32;;;;;;;5.90;3.55;;;5.40;99.90;;;;;;5050852;28;20483;-75
2021/04/20 03:50:00;;;;;;;3.83;3.53;;;5.20;99.90;;;;;;5051215;28;20084;-75
2021/04/20 03:52:33;;;;;;;5.65;3.45;;;5.00;99.90;;;;;;5050539;28;20025;-75
2021/04/20 03:55:02;;;;;;;3.85;3.47;;;5.10;99.90;;;;;;5049761;28;20441;-75
2021/04/20 03:57:29;;;;;;;9.13;5.03;;;5.40;99.90;;;;;;5051323;28;20033;-76
2021/04/20 03:59:58;;;;;;;4.78;3.50;;;5.60;99.90;;;;;;5050953;28;20060;-75
2021/04/20 04:02:24;;;;;;;3.80;3.17;;;5.70;99.90;;;;;;5049644;28;20494;-75
2021/04/20 04:04:52;;;;;;;5.25;3.40;;;5.80;99.90;;;;;;5051772;28;20033;-76
2021/04/20 04:07:19;;;;;;;3.47;3.10;;;5.70;99.90;;;;;;5054865;28;20067;-75
2021/04/20 04:09:47;;;;;;;3.60;3.30;;;5.70;99.90;;;;;;5054718;28;20033;-75
2021/04/20 04:12:14;;;;;;;2.88;2.67;;;5.70;99.90;;;;;;5054642;28;20108;-76
2021/04/20 04:14:40;;;;;;;2.97;2.67;;;5.50;99.90;;;;;;5052934;28;20078;-75
2021/04/20 04:17:09;;;;;;;3.72;3.35;;;5.30;99.90;;;;;;5053236;28;20024;-76
2021/04/20 04:19:40;;;;;;;3.53;3.22;;;5.40;99.90;;;;;;5046612;28;20113;-76
2021/04/20 04:22:19;;;;;;;4.50;3.13;;;5.70;99.90;;;;;;5034525;28;20072;-76
2021/04/20 04:24:53;;;;;;;4.47;3.63;;;5.80;99.90;;;;;;5054405;28;20040;-75
2021/04/20 04:27:24;;;;;;;3.20;2.75;;;6.00;99.90;;;;;;5053144;28;20375;-75
2021/04/20 04:29:54;;;;;;;2.67;2.35;;;6.00;99.90;;;;;;5054081;28;20024;-76
2021/04/20 04:32:21;;;;;;;6.05;2.60;;;5.80;99.90;;;;;;5054314;28;20482;-75
2021/04/20 04:34:49;;;;;;;3.45;2.22;;;5.70;99.90;;;;;;5054222;28;20022;-75
2021/04/20 04:37:15;;;;;;;3.92;2.50;;;5.60;99.90;;;;;;5054130;28;20102;-75
2021/04/20 04:39:43;;;;;;;4.28;2.72;;;5.70;99.90;;;;;;5054087;28;20486;-75
2021/04/20 04:42:09;;;;;;;5.78;3.65;;;5.80;99.90;;;;;;5054060;28;20021;-76
2021/04/20 04:44:35;;;;;;;4.55;3.20;;;5.60;99.90;;;;;;5053732;28;20101;-75
2021/04/20 04:47:01;;;;;;;4.00;2.97;;;5.80;99.90;;;;;;5040467;28;20047;-76
2021/04/20 04:49:29;;;;;;;4.30;2.97;;;5.90;99.90;;;;;;5034208;28;20032;-75
2021/04/20 04:51:56;;;;;;;4.30;2.78;;;6.10;99.90;;;;;;5033947;28;20017;-75
2021/04/20 04:54:23;;;;;;;3.33;3.03;;;6.20;99.90;;;;;;5050936;28;20078;-76
2021/04/20 04:56:50;;;;;;;4.15;2.53;;;6.00;99.90;;;;;;5053999;28;20441;-76
2021/04/20 04:59:19;;;;;;;3.25;2.78;;;5.90;99.90;;;;;;5053241;28;20449;-75
2021/04/20 05:01:45;;;;;;;2.55;2.30;;;5.70;99.90;;;;;;5053833;28;20535;-75
2021/04/20 05:04:13;;;;;;;3.30;2.45;;;5.80;99.90;;;;;;5053633;28;20036;-75
2021/04/20 05:06:47;;;;;;;3.83;2.60;;;5.90;99.90;;;;;;5053763;28;20033;-75
2021/04/20 05:09:15;;;;;;;3.85;2.95;;;6.00;99.90;;;;;;5053440;28;20017;-75
2021/04/20 05:11:41;;;;;;;4.28;3.65;;;6.20;99.90;;;;;;5051321;28;20029;-76
2021/04/20 05:14:08;;;;;;;3.58;3.08;;;6.40;99.90;;;;;;5047945;28;20029;-76
2021/04/20 05:16:34;;;;;;;4.53;3.40;;;6.30;99.90;;;;;;5043319;28;20042;-75
2021/04/20 05:19:05;;;;;;;3.97;2.72;;;6.30;99.90;;;;;;5042072;28;20028;-75
2021/04/20 05:21:31;;;;;;;3.50;3.20;;;6.20;99.90;;;;;;5047075;28;20037;-75
2021/04/20 05:23:57;;;;;;;3.25;2.95;;;6.00;99.90;;;;;;5045172;28;20021;-75
2021/04/20 05:26:30;;;;;;;3.22;2.90;;;5.90;99.90;;;;;;5034810;28;20468;-75
2021/04/20 05:29:00;;;;;;;4.20;3.60;;;5.80;99.90;;;;;;5069234;28;20104;-75
2021/04/20 05:31:28;;;;;;;3.10;2.90;;;5.90;99.90;;;;;;5033111;28;20048;-75
2021/04/20 05:33:56;;;;;;;4.55;3.10;;;6.00;99.90;;;;;;5046601;28;20017;-76
2021/04/20 05:36:22;;;;;;;4.05;2.92;;;6.00;99.90;;;;;;5034393;28;20037;-75
2021/04/20 05:38:56;;;;;;;3.95;2.83;;;6.10;99.90;;;;;;5034788;28;20191;-76
2021/04/20 05:41:28;;;;;;;3.25;2.63;;;5.90;99.90;;;;;;5035148;28;20108;-75
2021/04/20 05:43:55;;;;;;;4.60;2.75;;;5.90;99.90;;;;;;5048037;28;20029;-76
2021/04/20 05:46:21;;;;;;;5.30;4.50;;;5.90;99.90;;;;;;5041290;28;20032;-75
2021/04/20 05:48:48;;;;;;;4.75;4.28;;;6.00;99.90;;;;;;5040639;28;20025;-76
2021/04/20 05:51:16;;;;;;;3.50;3.15;;;6.20;99.90;;;;;;5048650;28;20434;-76
2021/04/20 05:53:42;;;;;;;6.88;3.45;;;6.10;99.90;;;;;;5036159;28;20570;-76
2021/04/20 05:56:09;;;;;;;22.85;6.60;;;6.20;99.90;;;;;;5044070;28;20033;-76
2021/04/20 05:58:35;;;;;;;8.55;4.80;;;6.30;99.90;;;;;;5047980;28;20041;-75
2021/04/20 06:01:02;;;;;;;7.38;4.47;;;6.40;99.90;;;;;;5038947;28;20050;-76
2021/04/20 06:03:28;;;;;;;4.57;4.18;;;6.60;99.90;;;;;;5036835;28;20376;-76
2021/04/20 06:05:57;;;;;;;4.53;4.03;;;6.80;99.90;;;;;;5033200;28;20475;-75
2021/04/20 06:08:27;;;;;;;4.32;3.50;;;6.60;99.90;;;;;;5032918;28;20497;-76
2021/04/20 06:10:52;;;;;;;5.93;4.47;;;6.50;99.90;;;;;;5045097;28;20033;-75
2021/04/20 06:13:19;;;;;;;11.65;4.60;;;6.80;99.90;;;;;;5023804;28;20032;-75
2021/04/20 06:15:45;;;;;;;7.03;3.85;;;7.00;99.90;;;;;;5030254;28;20037;-74
2021/04/20 06:18:11;;;;;;;6.05;2.85;;;7.10;99.90;;;;;;5054339;28;20056;-74
2021/04/20 06:20:37;;;;;;;4.82;3.45;;;7.20;99.90;;;;;;5034606;28;20117;-74
2021/04/20 06:23:06;;;;;;;4.18;2.95;;;7.00;99.90;;;;;;5032561;28;20108;-74
2021/04/20 06:25:34;;;;;;;5.82;3.40;;;7.10;99.90;;;;;;5029737;28;20117;-74
2021/04/20 06:27:59;;;;;;;5.20;3.53;;;7.00;99.90;;;;;;5032068;28;20470;-74
2021/04/20 06:30:25;;;;;;;4.82;3.33;;;7.10;99.90;;;;;;5033644;28;20121;-74
2021/04/20 06:32:52;;;;;;;6.25;3.85;;;7.20;99.90;;;;;;5031739;28;20049;-74
2021/04/20 06:35:21;;;;;;;4.13;3.30;;;7.30;99.90;;;;;;5032276;28;20029;-74
2021/04/20 06:37:51;;;;;;;5.90;3.47;;;7.40;99.90;;;;;;5037698;28;20044;-74
2021/04/20 06:40:25;;;;;;;10.93;4.70;;;7.60;99.90;;;;;;5031078;28;20029;-74
2021/04/20 06:43:08;;;;;;;4.18;3.75;;;7.70;99.90;;;;;;5044698;28;20051;-74
2021/04/20 06:45:41;;;;;;;3.25;2.88;;;7.90;99.90;;;;;;5043195;28;20037;-74
2021/04/20 06:48:24;;;;;;;4.30;3.00;;;8.10;99.90;;;;;;5031245;28;20471;-74
2021/04/20 06:50:57;;;;;;;3.10;2.80;;;8.10;99.90;;;;;;5033646;28;20108;-74
2021/04/20 06:53:33;;;;;;;3.67;2.92;;;8.30;99.90;;;;;;5047496;28;20013;-74
2021/04/20 06:56:36;;;;;;;4.38;3.15;;;8.60;99.90;;;;;;5037992;28;20094;-74
2021/04/20 06:59:28;;;;;;;3.75;2.97;;;8.80;99.90;;;;;;5029740;28;20029;-74
2021/04/20 07:02:06;;;;;;;4.45;2.95;;;9.10;99.90;;;;;;5031929;28;20039;-74
2021/04/20 07:04:45;;;;;;;7.53;3.63;;;9.20;99.90;;;;;;5032923;28;20479;-74
2021/04/20 07:07:33;;;;;;;2.95;2.65;;;9.50;99.90;;;;;;5031683;28;20514;-74
2021/04/20 07:10:17;;;;;;;4.07;2.85;;;9.80;99.90;;;;;;5038382;28;20052;-74
2021/04/20 07:12:46;;;;;;;6.30;2.83;;;10.00;99.90;;;;;;5036620;28;20045;-74
2021/04/20 07:15:17;;;;;;;7.45;3.10;;;9.90;99.90;;;;;;5039069;28;20421;-74
2021/04/20 07:18:03;;;;;;;4.03;3.25;;;10.00;99.90;;;;;;5033439;28;20029;-74
2021/04/20 07:20:46;;;;;;;3.90;2.90;;;10.10;99.90;;;;;;5038849;28;20463;-74
2021/04/20 07:23:23;;;;;;;5.38;3.30;;;10.30;99.90;;;;;;5033716;28;20064;-74
2021/04/20 07:26:38;;;;;;;7.57;3.63;;;10.40;99.90;;;;;;5044770;28;20065;-74
2021/04/20 07:29:40;;;;;;;5.50;3.00;;;10.30;99.90;;;;;;4998069;28;20022;-74
2021/04/20 07:32:31;;;;;;;5.00;2.95;;;10.50;99.90;;;;;;5000454;28;20030;-74
2021/04/20 07:35:27;;;;;;;2.67;2.47;;;10.80;99.90;;;;;;5006004;28;20064;-74
2021/04/20 07:38:04;;;;;;;4.18;3.30;;;11.10;99.30;;;;;;4995238;28;20038;-74
2021/04/20 07:40:58;;;;;;;3.50;3.20;;;11.20;99.90;;;;;;5010741;28;20561;-74
2021/04/20 07:43:33;;;;;;;9.50;4.90;;;11.30;99.90;;;;;;5018511;28;20038;-74
2021/04/20 07:46:21;;;;;;;7.85;4.90;;;11.50;99.90;;;;;;5003126;28;20455;-74
2021/04/20 07:48:54;;;;;;;5.15;4.25;;;11.70;99.90;;;;;;4994582;28;20026;-74
2021/04/20 07:51:49;;;;;;;5.75;3.83;;;12.00;99.90;;;;;;5001197;28;20144;-74
2021/04/20 07:54:27;;;;;;;3.75;3.40;;;12.30;99.90;;;;;;5011669;28;20487;-74
2021/04/20 07:57:03;;;;;;;4.20;2.92;;;12.50;99.90;;;;;;5013227;28;20045;-74
2021/04/20 07:59:38;;;;;;;3.13;2.83;;;12.90;98.00;;;;;;5008712;28;20519;-74
2021/04/20 08:02:19;;;;;;;4.43;2.50;;;13.10;95.50;;;;;;5012883;28;20120;-74
2021/04/20 08:05:09;;;;;;;4.68;2.85;;;13.20;93.80;;;;;;5037999;28;20083;-74
2021/04/20 08:08:12;;;;;;;6.95;2.92;;;13.30;93.80;;;;;;5045504;28;20442;-74
2021/04/20 08:10:46;;;;;;;5.22;3.63;;;13.40;93.10;;;;;;5041307;28;20037;-74
2021/04/20 08:13:19;;;;;;;3.28;2.95;;;13.70;90.90;;;;;;5015616;28;20033;-74
2021/04/20 08:15:54;;;;;;;4.18;2.67;;;13.90;85.50;;;;;;5032715;28;20087;-74
2021/04/20 08:18:40;;;;;;;5.18;2.88;;;14.20;86.40;;;;;;5036988;28;20041;-74
2021/04/20 08:21:08;;;;;;;4.13;3.40;;;14.20;87.10;;;;;;5030955;28;20037;-74
2021/04/20 08:23:40;;;;;;;3.97;3.20;;;14.30;90.30;;;;;;5024713;28;20139;-74
2021/04/20 08:26:13;;;;;;;5.13;4.03;;;14.10;92.40;;;;;;5034119;28;20057;-74
2021/04/20 08:28:47;;;;;;;8.10;3.33;;;14.10;94.20;;;;;;5033174;28;20068;-75
2021/04/20 08:31:42;;;;;;;4.68;3.42;;;14.10;93.50;;;;;;5038012;28;20037;-74
2021/04/20 08:34:18;;;;;;;4.82;3.28;;;14.00;93.90;;;;;;5018806;28;20030;-74
2021/04/20 08:37:10;;;;;;;5.68;2.90;;;14.10;93.10;;;;;;5029777;28;20041;-74
2021/04/20 08:39:44;;;;;;;7.47;4.13;;;14.10;91.60;;;;;;5038131;28;20037;-74
2021/04/20 08:42:34;;;;;;;7.60;3.55;;;14.10;92.60;;;;;;5049538;28;20044;-74
2021/04/20 08:45:42;;;;;;;4.80;3.63;;;14.00;91.30;;;;;;5050747;28;20167;-74
2021/04/20 08:48:49;;;;;;;4.30;3.78;;;14.20;88.20;;;;;;5016224;28;20506;-74
2021/04/20 08:51:29;;;;;;;5.43;4.07;;;14.40;89.00;;;;;;5034523;28;20052;-74
2021/04/20 08:53:59;;;;;;;5.32;3.83;;;14.60;86.20;;;;;;5044917;28;20421;-74
2021/04/20 08:56:47;;;;;;;6.97;3.80;;;14.90;88.50;;;;;;5041903;28;20108;-74
2021/04/20 08:59:43;;;;;;;7.50;3.33;;;15.30;81.90;;;;;;5032874;28;20140;-74
2021/04/20 09:02:25;;;;;;;5.82;4.05;;;15.70;78.40;;;;;;5031381;28;20026;-74
2021/04/20 09:05:08;;;;;;;8.25;4.00;;;15.80;79.30;;;;;;5032407;28;20034;-74
2021/04/20 09:07:54;;;;;;;5.85;3.83;;;16.00;72.30;;;;;;5032932;28;20036;-74
2021/04/20 09:10:44;;;;;;;6.32;4.30;;;16.10;73.20;;;;;;5033294;28;20505;-74
2021/04/20 09:13:21;;;;;;;8.32;3.45;;;16.70;67.80;;;;;;5044900;28;20400;-74
2021/04/20 09:15:55;;;;;;;4.50;3.85;;;17.30;64.20;;;;;;5034702;28;20107;-75
2021/04/20 09:18:31;;;;;;;6.18;3.95;;;17.60;66.00;;;;;;5039466;28;20053;-74
2021/04/20 09:21:01;;;;;;;5.25;3.72;;;17.40;63.50;;;;;;5033278;28;20032;-74
2021/04/20 09:23:55;;;;;;;8.45;4.43;;;18.50;61.60;;;;;;5040588;28;20044;-74
2021/04/20 09:26:48;;;;;;;7.15;4.07;;;19.00;59.20;;;;;;5041663;28;20037;-74
2021/04/20 09:29:29;;;;;;;9.02;3.72;;;20.30;56.10;;;;;;5026769;28;20026;-74
2021/04/20 09:32:01;;;;;;;7.38;3.75;;;21.70;53.40;;;;;;5033893;28;20025;-74
2021/04/20 09:34:32;;;;;;;5.88;4.55;;;22.10;51.60;;;;;;5033410;28;20136;-74
2021/04/20 09:36:58;;;;;;;;;;;23.10;50.60;;;;;;5032336;28;20525;-74
2021/04/20 09:39:25;;;;;;;6.95;4.57;;;23.50;46.50;;;;;;5025487;28;19908;-74
2021/04/20 09:41:53;;;;;;;50.03;5.80;;;26.00;44.30;;;;;;5042535;28;20037;-75
2021/04/20 09:44:39;;;;;;;6.38;4.25;;;26.60;44.30;;;;;;5038046;28;20064;-75
2021/04/20 09:47:17;;;;;;;7.03;4.80;;;27.50;42.30;;;;;;5036637;28;20056;-75
2021/04/20 09:50:05;;;;;;;6.82;5.80;;;27.20;40.00;;;;;;5042747;28;20025;-75
2021/04/20 09:53:13;;;;;;;7.38;5.15;;;27.40;40.40;;;;;;5042550;28;20026;-75
2021/04/20 09:55:44;;;;;;;10.27;4.40;;;27.20;40.50;;;;;;5035766;28;20036;-75
2021/04/20 09:58:10;;;;;;;5.22;4.32;;;27.30;43.00;;;;;;5034255;28;20032;-75
2021/04/20 10:00:41;;;;;;;6.40;5.38;;;29.20;40.10;;;;;;5028968;28;20037;-75
2021/04/20 10:03:19;;;;;;;7.72;4.82;;;29.70;37.60;;;;;;5036817;28;20112;-75
2021/04/20 10:06:09;;;;;;;11.38;8.07;;;28.60;40.10;;;;;;5038636;28;20491;-75
2021/04/20 10:09:22;;;;;;;14.70;8.45;;;27.30;40.90;;;;;;5044754;28;20020;-75
2021/04/20 10:12:06;;;;;;;8.68;7.85;;;27.50;40.20;;;;;;5031994;28;20037;-75
2021/04/20 10:14:54;;;;;;;10.63;7.55;;;29.00;40.90;;;;;;5036666;28;20041;-75
2021/04/20 10:17:41;;;;;;;8.10;7.40;;;29.50;39.20;;;;;;5035650;28;20025;-75
2021/04/20 10:20:21;;;;;;;10.77;8.65;;;29.30;37.90;;;;;;5029736;28;20128;-75
2021/04/20 10:22:57;;;;;;;11.05;9.55;;;27.80;40.70;;;;;;5031592;28;20476;-75
2021/04/20 10:25:45;;;;;;;11.10;9.68;;;27.00;40.60;;;;;;5042470;28;20073;-75
2021/04/20 10:28:45;;;;;;;12.73;10.40;;;25.70;41.90;;;;;;5030702;28;20472;-75
2021/04/20 10:31:20;;;;;;;9.23;8.07;;;26.50;41.80;;;;;;5030935;28;20030;-75
2021/04/20 10:33:51;;;;;;;15.75;8.38;;;27.40;41.00;;;;;;5032264;28;20503;-75
2021/04/20 10:36:22;;;;;;;13.10;10.68;;;29.70;38.60;;;;;;5032446;28;20033;-75
2021/04/20 10:38:54;;;;;;;12.93;9.85;;;30.80;38.90;;;;;;5032631;28;20024;-75
2021/04/20 10:41:21;;;;;;;10.13;9.02;;;32.20;36.90;;;;;;5032435;28;20387;-75
2021/04/20 10:43:48;;;;;;;10.05;9.15;;;32.40;35.80;;;;;;5050993;28;20029;-75
2021/04/20 10:46:22;;;;;;;9.18;8.27;;;33.00;36.30;;;;;;5039219;28;20064;-75
2021/04/20 10:48:50;;;;;;;6.78;5.57;;;33.40;35.20;;;;;;5032514;28;20510;-75
2021/04/20 10:51:19;;;;;;;7.95;3.90;;;30.60;35.40;;;;;;5031936;28;20117;-75
2021/04/20 10:53:48;;;;;;;5.95;4.20;;;31.10;38.20;;;;;;5050589;28;20021;-75
2021/04/20 10:56:16;;;;;;;5.53;3.90;;;30.90;36.60;;;;;;5049692;28;20491;-75
2021/04/20 10:58:47;;;;;;;5.68;3.97;;;30.50;36.80;;;;;;5040231;28;20296;-75
2021/04/20 11:01:29;;;;;;;5.53;4.10;;;31.80;36.90;;;;;;5032898;28;20053;-75
2021/04/20 11:04:03;;;;;;;4.72;4.32;;;32.70;36.80;;;;;;5042388;28;20112;-76
2021/04/20 11:07:06;;;;;;;4.50;4.07;;;34.60;36.80;;;;;;5047399;28;20495;-76
2021/04/20 11:09:34;;;;;;;5.15;4.03;;;34.40;34.10;;;;;;5050149;28;20029;-73
2021/04/20 11:12:15;;;;;;;6.32;4.32;;;32.50;35.90;;;;;;5042479;28;20035;-73
2021/04/20 11:14:45;;;;;;;10.57;9.55;;;33.80;36.40;;;;;;5048914;28;20463;-73
2021/04/20 11:17:37;;;;;;;5.10;4.70;;;33.20;32.90;;;;;;5035047;28;20025;-73
2021/04/20 11:20:12;;;;;;;10.82;9.10;;;29.70;36.30;;;;;;5036145;28;20029;-68
2021/04/20 11:22:52;;;;;;;4.60;4.22;;;27.30;38.30;;;;;;5035991;28;20017;-71
2021/04/20 11:25:24;;;;;;;8.27;6.15;;;24.80;41.70;;;;;;5016469;28;20041;-72
2021/04/20 11:27:55;;;;;;;4.63;4.22;;;24.90;41.20;;;;;;5036088;28;20029;-71
2021/04/20 11:30:34;;;;;;;6.85;4.57;;;25.40;43.70;;;;;;5036010;28;20033;-71
2021/04/20 11:33:13;;;;;;;4.13;3.60;;;26.50;42.40;;;;;;5055499;28;20108;-71
2021/04/20 11:35:45;;;;;;;3.80;3.50;;;26.60;41.70;;;;;;5040583;28;20038;-71
2021/04/20 11:38:15;;;;;;;4.85;3.70;;;25.90;40.50;;;;;;5035897;28;20295;-71
2021/04/20 11:40:48;;;;;;;7.97;3.97;;;25.40;43.10;;;;;;5047697;28;20599;-71
2021/04/20 11:43:16;;;;;;;5.15;3.75;;;25.80;42.80;;;;;;5015934;28;20093;-71
2021/04/20 11:45:44;;;;;;;5.85;5.10;;;24.80;42.40;;;;;;5020162;28;20045;-71
2021/04/20 11:48:14;;;;;;;5.70;4.43;;;27.40;41.40;;;;;;5035285;28;20029;-71
2021/04/20 11:50:51;;;;;;;5.65;3.72;;;31.90;38.00;;;;;;5033760;28;20037;-71
2021/04/20 11:53:18;;;;;;;3.47;3.17;;;34.10;36.10;;;;;;5040495;28;20031;-71
2021/04/20 11:55:47;;;;;;;3.83;3.08;;;29.20;33.00;;;;;;5046427;28;20487;-71
2021/04/20 11:58:41;;;;;;;3.83;3.23;;;27.10;39.00;;;;;;5048144;28;20021;-71
2021/04/20 12:01:17;;;;;;;5.30;4.80;;;25.60;40.50;;;;;;5036350;28;20065;-71
2021/04/20 12:03:50;;;;;;;4.47;3.47;;;24.60;42.30;;;;;;5032017;28;20035;-71
2021/04/20 12:06:16;;;;;;;4.80;3.88;;;24.60;42.90;;;;;;5066087;28;20425;-71
2021/04/20 12:08:44;;;;;;;3.55;3.25;;;24.10;41.30;;;;;;5033815;28;20017;-71
2021/04/20 12:11:12;;;;;;;4.93;3.85;;;22.90;45.20;;;;;;5047263;28;20112;-71
2021/04/20 12:13:46;;;;;;;3.72;3.28;;;21.80;43.40;;;;;;5028040;28;20025;-71
2021/04/20 12:16:13;;;;;;;4.28;3.58;;;21.60;43.30;;;;;;5028583;28;20499;-71
2021/04/20 12:18:46;;;;;;;6.85;3.35;;;22.10;44.30;;;;;;5034197;28;20027;-71
2021/04/20 12:21:25;;;;;;;6.30;3.45;;;22.20;46.20;;;;;;5028518;28;20041;-71
2021/04/20 12:23:54;;;;;;;3.92;3.53;;;21.90;46.50;;;;;;5043179;28;20020;-71
2021/04/20 12:26:20;;;;;;;4.53;3.00;;;23.10;45.60;;;;;;5029848;28;20064;-71
2021/04/20 12:28:52;;;;;;;4.53;2.42;;;23.30;45.10;;;;;;5034004;28;20064;-71
2021/04/20 12:31:33;;;;;;;4.10;3.53;;;23.00;43.00;;;;;;5036083;28;20025;-71
2021/04/20 12:33:59;;;;;;;4.40;3.20;;;22.00;42.40;;;;;;5037306;28;20036;-71
2021/04/20 12:36:50;;;;;;;4.15;3.78;;;24.00;40.40;;;;;;5038852;28;20038;-71
2021/04/20 12:39:32;;;;;;;5.47;3.30;;;26.90;37.70;;;;;;5045950;28;20060;-71
2021/04/20 12:42:03;;;;;;;4.32;2.80;;;24.30;40.30;;;;;;5034062;28;20032;-71
2021/04/20 12:44:40;;;;;;;7.90;3.10;;;23.70;41.90;;;;;;5031709;28;20482;-71
2021/04/20 12:47:09;;;;;;;3.78;3.13;;;22.20;45.10;;;;;;5033474;28;20025;-71
2021/04/20 12:49:37;;;;;;;4.68;3.28;;;21.60;46.00;;;;;;5035988;28;20109;-71
2021/04/20 12:52:10;;;;;;;3.72;2.80;;;21.40;46.80;;;;;;5024307;28;20057;-71
2021/04/20 12:54:39;;;;;;;5.05;2.72;;;21.70;45.40;;;;;;5036209;28;20085;-71
2021/04/20 12:57:12;;;;;;;2.60;2.40;;;21.20;46.60;;;;;;5034895;28;20134;-71
2021/04/20 12:59:44;;;;;;;3.08;2.55;;;21.10;43.60;;;;;;5043662;28;20529;-71
2021/04/20 13:02:14;;;;;;;4.45;2.55;;;21.00;46.40;;;;;;5042164;28;20507;-71
2021/04/20 13:04:41;;;;;;;7.28;3.17;;;21.00;46.40;;;;;;5036020;28;20037;-71
2021/04/20 13:07:07;;;;;;;6.43;3.05;;;20.50;46.80;;;;;;5035845;28;20037;-71
2021/04/20 13:09:46;;;;;;;5.93;2.20;;;20.20;47.50;;;;;;5039006;28;20033;-71
2021/04/20 13:12:18;;;;;;;2.58;2.35;;;19.70;50.50;;;;;;5041235;28;20079;-71
2021/04/20 13:14:48;;;;;;;5.82;3.10;;;19.40;50.20;;;;;;5045565;28;20025;-70
2021/04/20 13:17:19;;;;;;;27.42;2.97;;;19.20;50.70;;;;;;5042832;28;20032;-70
2021/04/20 13:19:50;;;;;;;7.75;2.45;;;19.00;51.70;;;;;;5033847;28;20384;-70
2021/04/20 13:22:17;;;;;;;4.75;2.70;;;18.90;51.00;;;;;;5031947;28;20060;-70